createdAt,value
2023-04-04T00:01:13.277Z,57.19
2023-04-04T00:04:02.092Z,56.80
2023-04-04T00:06:51.917Z,56.77
2023-04-04T00:09:41.860Z,57.17
2023-04-04T00:12:30.411Z,57.48
2023-04-04T00:15:19.076Z,57.19
2023-04-04T00:18:08.059Z,57.47
2023-04-04T00:20:56.615Z,57.37
2023-04-04T00:23:45.147Z,57.93
2023-04-04T00:26:35.054Z,58.07
2023-04-04T00:29:23.560Z,57.63
2023-04-04T00:32:12.342Z,58.11
2023-04-04T00:35:00.863Z,58.50
2023-04-04T00:37:49.426Z,59.08
2023-04-04T00:40:42.425Z,58.71
2023-04-04T00:43:32.566Z,58.01
2023-04-04T00:46:21.983Z,58.50
2023-04-04T00:49:10.466Z,58.90
2023-04-04T00:51:59.245Z,59.12
2023-04-04T00:54:47.755Z,59.06
2023-04-04T00:57:36.160Z,59.35
2023-04-04T01:00:26.324Z,59.16
2023-04-04T01:03:15.008Z,59.56
2023-04-04T01:06:03.587Z,58.88
2023-04-04T01:08:52.419Z,59.85
2023-04-04T01:11:41.481Z,59.30
2023-04-04T01:14:30.078Z,60.26
2023-04-04T01:17:20.746Z,59.83
2023-04-04T01:20:13.345Z,60.49
2023-04-04T01:23:02.828Z,60.69
2023-04-04T01:26:02.130Z,60.55
2023-04-04T01:28:50.934Z,60.87
2023-04-04T01:31:43.093Z,60.57
2023-04-04T01:34:36.108Z,60.76
2023-04-04T01:37:30.066Z,60.32
2023-04-04T01:40:22.453Z,60.39
2023-04-04T01:43:12.341Z,60.72
2023-04-04T01:46:01.007Z,60.13
2023-04-04T01:48:49.630Z,59.96
2023-04-04T01:51:38.827Z,60.56
2023-04-04T01:54:28.269Z,60.92
2023-04-04T01:57:16.839Z,61.12
2023-04-04T02:00:08.226Z,60.41
2023-04-04T02:02:56.738Z,60.63
2023-04-04T02:05:45.403Z,61.01
2023-04-04T02:08:33.940Z,60.55
2023-04-04T02:11:23.238Z,61.50
2023-04-04T02:14:11.763Z,61.13
2023-04-04T02:17:01.641Z,61.18
2023-04-04T02:19:50.749Z,61.75
2023-04-04T02:22:39.228Z,62.35
2023-04-04T02:25:27.906Z,62.08
2023-04-04T02:28:16.656Z,62.83
2023-04-04T02:31:05.337Z,62.78
2023-04-04T02:33:55.196Z,62.93
2023-04-04T02:36:43.655Z,62.61
2023-04-04T02:39:32.132Z,63.04
2023-04-04T02:42:20.773Z,62.87
2023-04-04T02:45:10.728Z,63.45
2023-04-04T02:47:59.204Z,63.52
2023-04-04T02:50:49.038Z,63.94
2023-04-04T02:53:37.550Z,63.89
2023-04-04T02:56:26.593Z,63.56
2023-04-04T02:59:15.128Z,63.50
2023-04-04T03:02:03.584Z,64.37
2023-04-04T03:04:52.096Z,64.57
2023-04-04T03:07:42.156Z,65.06
2023-04-04T03:10:31.096Z,65.21
2023-04-04T03:13:19.582Z,64.46
2023-04-04T03:16:08.463Z,64.48
2023-04-04T03:18:57.177Z,64.09
2023-04-04T03:21:45.791Z,64.23
2023-04-04T03:24:35.664Z,64.03
2023-04-04T03:27:24.123Z,64.38
2023-04-04T03:30:13.266Z,64.12
2023-04-04T03:33:08.615Z,64.66
2023-04-04T03:35:57.295Z,64.08
2023-04-04T03:38:45.775Z,63.78
2023-04-04T03:41:36.366Z,64.70
2023-04-04T03:44:24.944Z,64.60
2023-04-04T03:47:13.405Z,64.88
2023-04-04T03:50:02.367Z,64.40
2023-04-04T03:52:51.113Z,63.74
2023-04-04T03:55:42.014Z,64.29
2023-04-04T03:58:31.931Z,64.27
2023-04-04T04:01:21.058Z,65.08
2023-04-04T04:04:09.589Z,65.04
2023-04-04T04:06:58.584Z,65.12
2023-04-04T04:09:47.179Z,64.60
2023-04-04T04:12:35.690Z,65.37
2023-04-04T04:15:25.699Z,65.45
2023-04-04T04:18:14.481Z,64.98
2023-04-04T04:21:04.071Z,64.82
2023-04-04T04:23:52.820Z,65.16
2023-04-04T04:26:41.513Z,64.93
2023-04-04T04:29:30.911Z,65.61
2023-04-04T04:32:21.360Z,65.35
2023-04-04T04:35:10.672Z,65.53
2023-04-04T04:37:59.203Z,65.37
2023-04-04T04:40:47.696Z,65.35
2023-04-04T04:43:36.936Z,65.26
2023-04-04T04:46:25.528Z,65.86
2023-04-04T04:49:15.455Z,66.27
2023-04-04T04:52:03.923Z,66.19
2023-04-04T04:54:52.521Z,66.31
2023-04-04T04:57:40.990Z,65.79
2023-04-04T05:00:29.571Z,65.87
2023-04-04T05:03:18.057Z,67.53
2023-04-04T05:06:08.147Z,66.34
2023-04-04T05:08:56.669Z,66.63
2023-04-04T05:11:45.216Z,67.37
2023-04-04T05:14:33.690Z,66.61
2023-04-04T05:17:23.053Z,66.05
2023-04-04T05:20:12.554Z,65.35
2023-04-04T05:23:02.347Z,65.09
2023-04-04T05:25:51.484Z,65.59
2023-04-04T05:28:40.706Z,65.13
2023-04-04T05:31:29.259Z,65.37
2023-04-04T05:34:17.748Z,65.29
2023-04-04T05:37:06.216Z,65.52
2023-04-04T05:39:56.204Z,65.40
2023-04-04T05:42:44.723Z,64.93
2023-04-04T05:45:33.349Z,64.75
2023-04-04T05:48:21.876Z,64.95
2023-04-04T05:51:11.292Z,64.90
2023-04-04T05:54:00.943Z,65.14
2023-04-04T05:56:50.751Z,64.63
2023-04-04T05:59:39.484Z,64.43
2023-04-04T06:02:29.304Z,63.43
2023-04-04T06:05:18.263Z,63.04
2023-04-04T06:08:06.895Z,63.90
2023-04-04T06:10:56.024Z,63.25
2023-04-04T06:13:45.887Z,61.68
2023-04-04T06:16:34.453Z,62.26
2023-04-04T06:19:22.986Z,63.13
2023-04-04T06:22:11.530Z,62.07
2023-04-04T06:25:00.037Z,61.01
2023-04-04T06:27:48.580Z,60.56
2023-04-04T06:30:39.456Z,61.83
2023-04-04T06:33:28.189Z,59.94
2023-04-04T06:36:16.676Z,58.16
2023-04-04T06:39:05.304Z,57.91
2023-04-04T06:41:53.789Z,58.35
2023-04-04T06:44:42.363Z,57.28
2023-04-04T06:47:33.348Z,56.74
2023-04-04T06:50:22.328Z,56.56
2023-04-04T06:53:10.924Z,55.59
2023-04-04T06:55:59.706Z,55.09
2023-04-04T06:58:48.277Z,55.50
2023-04-04T07:01:36.900Z,54.27
2023-04-04T07:04:27.135Z,54.17
2023-04-04T07:07:16.112Z,54.64
2023-04-04T07:10:04.946Z,54.48
2023-04-04T07:12:53.540Z,54.05
2023-04-04T07:15:43.640Z,53.80
2023-04-04T07:18:32.347Z,53.59
2023-04-04T07:21:22.405Z,53.32
2023-04-04T07:24:10.880Z,52.90
2023-04-04T07:26:59.364Z,52.11
2023-04-04T07:29:47.888Z,52.10
2023-04-04T07:32:38.133Z,51.48
2023-04-04T07:35:27.146Z,51.84
2023-04-04T07:38:17.608Z,50.73
2023-04-04T07:41:06.447Z,50.08
2023-04-04T07:43:55.098Z,50.00
2023-04-04T07:46:44.056Z,50.01
2023-04-04T07:49:33.520Z,48.52
2023-04-04T07:52:22.026Z,48.22
2023-04-04T07:55:11.968Z,49.44
2023-04-04T07:58:00.410Z,48.40
2023-04-04T08:00:49.038Z,48.75
2023-04-04T08:03:37.642Z,47.63
2023-04-04T08:06:27.162Z,47.78
2023-04-04T08:09:16.116Z,47.30
2023-04-04T08:12:06.824Z,45.88
2023-04-04T08:14:55.952Z,47.04
2023-04-04T08:17:44.539Z,46.09
2023-04-04T08:20:33.070Z,45.19
2023-04-04T08:23:21.541Z,44.96
2023-04-04T08:26:11.699Z,45.38
2023-04-04T08:29:01.569Z,43.41
2023-04-04T08:31:50.192Z,43.98
2023-04-04T08:34:38.806Z,43.32
2023-04-04T08:37:29.278Z,44.72
2023-04-04T08:40:17.786Z,44.11
2023-04-04T08:43:06.533Z,43.93
2023-04-04T08:45:56.900Z,43.76
2023-04-04T08:48:45.800Z,43.71
2023-04-04T08:51:35.039Z,44.33
2023-04-04T08:54:24.499Z,44.75
2023-04-04T08:57:13.558Z,44.05
2023-04-04T09:00:05.985Z,44.44
2023-04-04T09:03:03.436Z,43.96
2023-04-04T09:05:52.416Z,44.02
2023-04-04T09:08:41.313Z,42.23
2023-04-04T09:11:32.695Z,42.52
2023-04-04T09:14:22.227Z,42.68
2023-04-04T09:17:11.065Z,43.03
2023-04-04T09:20:04.074Z,42.86
2023-04-04T09:22:52.526Z,43.37
2023-04-04T09:25:56.204Z,42.66
2023-04-04T09:28:53.484Z,43.51
2023-04-04T09:31:46.530Z,42.20
2023-04-04T09:34:35.243Z,42.98
2023-04-04T09:37:25.355Z,42.39
2023-04-04T09:40:15.218Z,42.36
2023-04-04T09:43:04.741Z,41.40
2023-04-04T09:45:55.764Z,41.79
2023-04-04T09:48:49.777Z,41.81
2023-04-04T09:51:38.712Z,40.73
2023-04-04T09:54:30.743Z,41.47
2023-04-04T09:57:19.772Z,42.09
2023-04-04T10:00:09.695Z,42.12
2023-04-04T10:02:58.994Z,41.88
2023-04-04T10:05:48.752Z,41.31
2023-04-04T10:08:40.689Z,42.46
2023-04-04T10:11:32.407Z,42.50
2023-04-04T10:14:35.966Z,40.89
2023-04-04T10:17:25.179Z,40.63
2023-04-04T10:20:14.039Z,40.54
2023-04-04T10:23:02.872Z,39.75
2023-04-04T10:25:51.472Z,40.17
2023-04-04T10:28:42.435Z,41.54
2023-04-04T10:31:35.118Z,41.74
2023-04-04T10:34:26.677Z,38.88
2023-04-04T10:37:19.000Z,40.04
2023-04-04T10:40:11.340Z,40.22
2023-04-04T10:43:02.817Z,39.99
2023-04-04T10:45:52.739Z,38.79
2023-04-04T10:48:42.539Z,39.60
2023-04-04T10:51:32.650Z,39.72
2023-04-04T10:54:22.636Z,39.67
2023-04-04T10:57:12.795Z,39.93
2023-04-04T11:00:05.098Z,39.27
2023-04-04T11:02:57.967Z,40.68
2023-04-04T11:05:49.044Z,40.77
2023-04-04T11:08:41.071Z,40.28
2023-04-04T11:11:30.392Z,39.38
2023-04-04T11:14:30.071Z,40.39
2023-04-04T11:17:19.757Z,39.38
2023-04-04T11:20:10.906Z,39.92
2023-04-04T11:23:07.254Z,39.15
2023-04-04T11:25:56.803Z,39.31
2023-04-04T11:28:46.755Z,38.88
2023-04-04T11:31:36.187Z,39.51
2023-04-04T11:34:31.724Z,38.86
2023-04-04T11:37:21.983Z,40.07
2023-04-04T11:40:13.973Z,39.67
2023-04-04T11:43:04.285Z,38.54
2023-04-04T11:45:53.178Z,38.97
2023-04-04T11:48:42.978Z,39.97
2023-04-04T11:51:32.011Z,39.38
2023-04-04T11:54:21.870Z,39.22
2023-04-04T11:57:12.713Z,39.30
2023-04-04T12:00:05.460Z,38.16
2023-04-04T12:02:54.032Z,39.21
2023-04-04T12:05:44.336Z,37.91
2023-04-04T12:08:33.650Z,38.26
2023-04-04T12:11:26.047Z,38.65
2023-04-04T12:14:19.145Z,38.94
2023-04-04T12:17:07.651Z,39.68
2023-04-04T12:19:56.218Z,38.78
2023-04-04T12:22:45.606Z,39.04
2023-04-04T12:25:34.813Z,39.33
2023-04-04T12:28:27.022Z,38.56
2023-04-04T12:31:16.802Z,38.48
2023-04-04T12:34:05.791Z,39.15
2023-04-04T12:36:54.471Z,38.14
2023-04-04T12:39:49.331Z,38.67
2023-04-04T12:42:37.901Z,39.73
2023-04-04T12:45:29.752Z,39.54
2023-04-04T12:48:18.893Z,39.69
2023-04-04T12:51:08.612Z,38.95
2023-04-04T12:53:58.367Z,38.95
2023-04-04T12:56:46.858Z,38.37
2023-04-04T12:59:36.706Z,38.88
2023-04-04T13:02:27.669Z,38.75
2023-04-04T13:05:17.898Z,38.45
2023-04-04T13:08:07.609Z,39.30
2023-04-04T13:11:02.327Z,38.27
2023-04-04T13:14:01.339Z,38.19
2023-04-04T13:17:04.502Z,38.54
2023-04-04T13:19:54.422Z,38.89
2023-04-04T13:22:44.029Z,39.25
2023-04-04T13:25:33.208Z,38.92
2023-04-04T13:28:21.733Z,39.86
2023-04-04T13:31:11.680Z,38.62
2023-04-04T13:34:00.259Z,37.82
2023-04-04T13:36:50.072Z,38.51
2023-04-04T13:39:38.917Z,38.24
2023-04-04T13:42:30.377Z,38.24
2023-04-04T13:45:19.635Z,39.19
2023-04-04T13:48:08.208Z,38.07
2023-04-04T13:50:57.374Z,37.76
2023-04-04T13:53:51.391Z,38.00
2023-04-04T13:56:40.637Z,38.20
2023-04-04T13:59:29.241Z,38.77
2023-04-04T14:02:17.698Z,38.31
2023-04-04T14:05:06.961Z,39.07
2023-04-04T14:07:55.495Z,38.24
2023-04-04T14:10:45.426Z,38.02
2023-04-04T14:13:33.960Z,37.88
2023-04-04T14:16:23.496Z,37.89
2023-04-04T14:19:12.063Z,38.08
2023-04-04T14:22:00.899Z,37.67
2023-04-04T14:24:49.430Z,37.14
2023-04-04T14:27:39.297Z,38.93
2023-04-04T14:30:28.636Z,38.65
2023-04-04T14:33:17.157Z,37.71
2023-04-04T14:36:06.517Z,38.59
2023-04-04T14:38:55.302Z,38.52
2023-04-04T14:41:43.812Z,38.17
2023-04-04T14:44:33.726Z,38.46
2023-04-04T14:47:22.285Z,38.27
2023-04-04T14:50:11.976Z,38.86
2023-04-04T14:53:00.871Z,38.97
2023-04-04T14:55:49.395Z,37.94
2023-04-04T14:58:37.976Z,37.73
2023-04-04T15:01:28.378Z,38.20
2023-04-04T15:04:17.209Z,38.35
2023-04-04T15:07:05.823Z,38.40
2023-04-04T15:09:54.324Z,38.26
2023-04-04T15:12:42.784Z,38.63
2023-04-04T15:15:31.406Z,38.38
2023-04-04T15:18:21.456Z,38.56
2023-04-04T15:21:09.926Z,38.81
2023-04-04T15:23:58.468Z,39.10
2023-04-04T15:26:47.765Z,38.50
2023-04-04T15:29:36.220Z,38.56
2023-04-04T15:32:24.782Z,39.50
2023-04-04T15:35:18.952Z,39.07
2023-04-04T15:38:07.563Z,38.38
2023-04-04T15:40:57.855Z,37.74
2023-04-04T15:43:46.801Z,38.98
2023-04-04T15:46:35.499Z,38.99
2023-04-04T15:49:24.048Z,38.71
2023-04-04T15:52:13.971Z,38.22
2023-04-04T15:55:03.332Z,38.61
2023-04-04T15:57:51.892Z,38.89
2023-04-04T16:00:40.601Z,40.06
2023-04-04T16:03:29.342Z,39.26
2023-04-04T16:06:17.907Z,38.81
2023-04-04T16:09:07.917Z,39.72
2023-04-04T16:11:57.016Z,39.35
2023-04-04T16:14:45.678Z,39.44
2023-04-04T16:17:34.155Z,39.52
2023-04-04T16:20:22.669Z,39.74
2023-04-04T16:23:11.321Z,39.87
2023-04-04T16:26:01.193Z,40.04
2023-04-04T16:28:49.733Z,40.23
2023-04-04T16:31:38.280Z,40.50
2023-04-04T16:34:26.823Z,40.47
2023-04-04T16:37:16.475Z,40.68
2023-04-04T16:40:05.549Z,40.35
2023-04-04T16:42:55.445Z,40.71
2023-04-04T16:45:44.065Z,40.41
2023-04-04T16:48:32.705Z,40.32
2023-04-04T16:51:21.197Z,40.30
2023-04-04T16:54:09.746Z,40.03
2023-04-04T16:56:58.370Z,41.44
2023-04-04T16:59:48.390Z,41.21
2023-04-04T17:02:38.311Z,40.23
2023-04-04T17:05:27.267Z,40.33
2023-04-04T17:08:15.912Z,41.28
2023-04-04T17:11:04.588Z,41.10
2023-04-04T17:13:53.880Z,41.27
2023-04-04T17:16:43.952Z,41.40
2023-04-04T17:19:35.003Z,41.25
2023-04-04T17:22:23.843Z,41.69
2023-04-04T17:25:12.715Z,40.75
2023-04-04T17:28:02.490Z,41.74
2023-04-04T17:30:51.239Z,41.49
2023-04-04T17:33:41.735Z,42.18
2023-04-04T17:36:30.972Z,42.31
2023-04-04T17:39:19.576Z,42.83
2023-04-04T17:42:08.318Z,42.33
2023-04-04T17:44:56.897Z,42.05
2023-04-04T17:47:46.197Z,41.25
2023-04-04T17:50:36.119Z,42.18
2023-04-04T17:53:25.153Z,42.19
2023-04-04T17:56:13.942Z,42.27
2023-04-04T17:59:02.491Z,42.64
2023-04-04T18:01:51.449Z,43.25
2023-04-04T18:04:41.373Z,42.83
2023-04-04T18:07:31.261Z,43.17
2023-04-04T18:10:19.914Z,43.58
2023-04-04T18:13:08.488Z,43.78
2023-04-04T18:15:56.992Z,43.71
2023-04-04T18:18:45.519Z,44.08
2023-04-04T18:21:33.998Z,43.84
2023-04-04T18:24:25.930Z,43.82
2023-04-04T18:27:14.378Z,43.87
2023-04-04T18:30:02.981Z,44.34
2023-04-04T18:32:51.636Z,44.29
2023-04-04T18:35:40.389Z,44.51
2023-04-04T18:38:29.159Z,44.80
2023-04-04T18:41:19.041Z,45.00
2023-04-04T18:44:08.391Z,45.08
2023-04-04T18:46:58.614Z,45.01
2023-04-04T18:49:47.165Z,45.54
2023-04-04T18:52:36.104Z,46.00
2023-04-04T18:55:24.916Z,45.88
2023-04-04T18:58:14.804Z,46.11
2023-04-04T19:01:04.587Z,46.77
2023-04-04T19:03:55.277Z,46.73
2023-04-04T19:06:45.055Z,46.52
2023-04-04T19:09:33.896Z,46.90
2023-04-04T19:12:22.837Z,46.82
2023-04-04T19:15:13.042Z,47.21
2023-04-04T19:18:01.594Z,47.13
2023-04-04T19:20:50.102Z,47.33
2023-04-04T19:23:38.623Z,47.48
2023-04-04T19:26:27.190Z,48.05
2023-04-04T19:29:21.009Z,48.46
2023-04-04T19:32:14.195Z,47.85
2023-04-04T19:35:03.551Z,48.09
2023-04-04T19:37:52.058Z,48.15
2023-04-04T19:40:48.913Z,48.20
2023-04-04T19:43:37.497Z,48.86
2023-04-04T19:46:27.763Z,48.48
2023-04-04T19:49:19.135Z,48.54
2023-04-04T19:52:08.710Z,49.21
2023-04-04T19:54:57.264Z,49.68
2023-04-04T19:57:45.739Z,50.15
2023-04-04T20:00:34.207Z,49.89
2023-04-04T20:03:29.607Z,50.24
2023-04-04T20:06:27.620Z,50.61
2023-04-04T20:09:31.209Z,51.15
2023-04-04T20:12:20.120Z,51.26
2023-04-04T20:15:15.432Z,51.65
2023-04-04T20:18:04.030Z,51.50
2023-04-04T20:20:58.419Z,51.88
2023-04-04T20:23:52.521Z,52.58
2023-04-04T20:26:43.778Z,53.27
2023-04-04T20:29:33.962Z,53.44
2023-04-04T20:32:22.613Z,53.63
2023-04-04T20:35:26.783Z,53.62
2023-04-04T20:38:17.378Z,53.60
2023-04-04T20:41:16.244Z,53.82
2023-04-04T20:44:05.335Z,54.08
2023-04-04T20:46:53.869Z,55.28
2023-04-04T20:49:42.397Z,57.03
2023-04-04T20:52:31.172Z,57.13
2023-04-04T20:55:20.316Z,57.55
2023-04-04T20:58:11.924Z,57.38
2023-04-04T21:01:01.224Z,57.80
2023-04-04T21:03:51.660Z,58.30
2023-04-04T21:06:40.377Z,57.95
2023-04-04T21:09:28.869Z,57.83
2023-04-04T21:12:17.381Z,59.16
2023-04-04T21:15:10.665Z,59.51
2023-04-04T21:18:01.044Z,59.73
2023-04-04T21:21:08.808Z,60.18
2023-04-04T21:23:58.095Z,60.69
2023-04-04T21:26:46.690Z,61.21
2023-04-04T21:29:35.200Z,60.51
2023-04-04T21:32:25.073Z,60.46
2023-04-04T21:35:42.248Z,60.09
2023-04-04T21:38:32.765Z,60.88
2023-04-04T21:41:24.886Z,61.52
2023-04-04T21:44:13.430Z,60.87
2023-04-04T21:47:02.024Z,61.43
2023-04-04T21:49:51.943Z,61.29
2023-04-04T21:52:42.164Z,61.74
2023-04-04T21:55:30.706Z,62.14
2023-04-04T21:58:19.160Z,62.23
2023-04-04T22:01:07.811Z,63.74
2023-04-04T22:03:56.252Z,64.73
2023-04-04T22:06:46.257Z,64.65
2023-04-04T22:09:34.774Z,66.01
2023-04-04T22:12:23.885Z,66.03
2023-04-04T22:15:12.648Z,66.38
2023-04-04T22:18:03.975Z,66.23
2023-04-04T22:20:58.602Z,67.17
2023-04-04T22:23:51.699Z,67.57
2023-04-04T22:26:41.732Z,68.21
2023-04-04T22:29:30.501Z,68.87
2023-04-04T22:32:19.013Z,69.05
2023-04-04T22:35:08.103Z,68.63
2023-04-04T22:38:00.711Z,69.08
2023-04-04T22:40:56.684Z,69.19
2023-04-04T22:43:50.499Z,69.37
2023-04-04T22:46:39.908Z,69.92
2023-04-04T22:49:28.811Z,70.39
2023-04-04T22:52:18.689Z,70.39
2023-04-04T22:55:07.707Z,70.24
2023-04-04T22:57:57.779Z,71.07
2023-04-04T23:00:46.392Z,71.46
2023-04-04T23:03:34.863Z,71.90
2023-04-04T23:06:23.669Z,72.27
2023-04-04T23:09:12.251Z,71.56
2023-04-04T23:12:01.272Z,71.17
2023-04-04T23:14:51.086Z,71.14
2023-04-04T23:17:39.680Z,71.08
2023-04-04T23:20:30.939Z,71.47
2023-04-04T23:23:19.705Z,71.89
2023-04-04T23:26:08.193Z,71.36
2023-04-04T23:28:57.124Z,71.75
2023-04-04T23:31:47.104Z,71.56
2023-04-04T23:34:35.609Z,71.30
2023-04-04T23:37:24.191Z,71.82
2023-04-04T23:40:13.457Z,71.02
2023-04-04T23:43:01.891Z,70.94
2023-04-04T23:45:50.951Z,71.19
2023-04-04T23:48:41.053Z,71.14
2023-04-04T23:51:37.883Z,70.95
2023-04-04T23:54:26.806Z,71.26
2023-04-04T23:57:15.439Z,72.47
